Etusivu
METAR-TAF:

METAR-TAF

Lentoasemat :

Lüderitz, Namibia

Leveyspiiri: 26-41S, Pituuspiiri: 015-15E, korkeus merenpinnasta: 130 m

Tämänhetkinen sää

Tämä raportti tehtiin 1 tunti ja 17 minuuttia sitten, kello 22.00 UTC
Lämpötila 15°C
Kosteus 59%
Ilmanpaine 1019 hPa

METAR: FYLZ 222200Z AUTO /////KT //// // ////// 15/07 Q1019

Aika: 01:17 (23:17 UTC)

Sääennuste

Tämä raportti tehtiin 6 tuntia ja 17 minuuttia sitten, kello 17.00 UTC
Ennuste voimassa 22. päivästä klo 18 UTC - 23. päivään klo 03 UTC
Tuuli 6 kn etelästä
Näkyvyys 10 km tai enemmän
ei pilviä alle 1500 m:ssä eikä cumulonimbus-pilviä

TAF: FYLZ 221700Z 2218/2303 17006KT CAVOK

Säähavainnot ja -ennusteet yli 4000 lentoasemalta (METAR- ja TAF-raportit).

Käytössä olevat sääasemat on merkitty karttaan keltaisilla ja punaisilla pisteillä.

Aseta hiiri pisteen päälle nähdäksesi sääaseman nimen.

Klikkaa sitten nähdäksesi säähavainnot ja -ennusteet.

Kartan vaihtaminen: klikkaa mustalla rastilla varustettuja vihreitä pisteitä, niin voit zoomata sisään; viivalla varustettua vihreää pistettä, niin voit zoomata ulos tai vihreitä nuolia, niin pääset viereisille kartoille.


METAR-TAF: